Time;durP1;ratioP1;P1;durP2;ratioP2;P2;SDS_P1;SDS_P2;PMS_P1;PMS_P2;Temp;Humidity;BMP_temperature;BMP_pressure;BME280_temperature;BME280_humidity;BME280_pressure;Samples;Min_cycle;Max_cycle;Signal;HPM_P1;HPM_P2
2021/01/16 00:01:04;;;;;;;14.05;6.82;;;5.90;70.60;;;;;;5094390;28;20023;-59
2021/01/16 00:03:29;;;;;;;13.77;6.80;;;6.00;70.70;;;;;;5094985;28;20034;-59
2021/01/16 00:05:59;;;;;;;12.38;7.03;;;6.00;70.60;;;;;;5095096;28;20115;-59
2021/01/16 00:08:25;;;;;;;13.98;5.97;;;6.00;70.40;;;;;;5094049;28;20144;-59
2021/01/16 00:10:57;;;;;;;13.30;7.00;;;6.00;70.50;;;;;;5094812;28;20064;-59
2021/01/16 00:13:33;;;;;;;15.30;5.95;;;6.00;70.40;;;;;;5094584;28;20483;-59
2021/01/16 00:16:00;;;;;;;14.23;5.55;;;6.00;70.30;;;;;;5094784;28;20036;-59
2021/01/16 00:18:26;;;;;;;12.13;5.43;;;6.00;70.50;;;;;;5094440;28;20551;-59
2021/01/16 00:20:54;;;;;;;9.18;4.65;;;6.00;70.70;;;;;;5094232;28;20135;-59
2021/01/16 00:23:23;;;;;;;14.40;6.72;;;6.00;71.30;;;;;;5094581;28;20467;-59
2021/01/16 00:25:49;;;;;;;13.10;4.40;;;5.90;72.00;;;;;;5094593;28;20032;-59
2021/01/16 00:28:21;;;;;;;7.43;3.53;;;5.90;72.30;;;;;;5093984;28;20082;-59
2021/01/16 00:30:47;;;;;;;9.88;4.47;;;5.90;72.90;;;;;;5094341;28;20051;-59
2021/01/16 00:33:25;;;;;;;6.88;3.03;;;5.80;73.20;;;;;;5094501;28;20028;-59
2021/01/16 00:35:52;;;;;;;9.82;4.90;;;5.70;73.60;;;;;;5093420;28;20024;-59
2021/01/16 00:38:18;;;;;;;9.65;3.40;;;5.80;74.00;;;;;;5104110;28;20047;-59
2021/01/16 00:40:44;;;;;;;5.85;3.08;;;5.70;74.30;;;;;;5098377;28;20032;-59
2021/01/16 00:43:14;;;;;;;5.63;2.97;;;5.70;74.60;;;;;;5093459;28;20490;-59
2021/01/16 00:45:41;;;;;;;10.25;4.43;;;5.60;74.80;;;;;;5094008;28;20031;-59
2021/01/16 00:48:11;;;;;;;5.70;3.20;;;5.60;75.10;;;;;;5094106;28;20051;-59
2021/01/16 00:50:37;;;;;;;8.60;4.40;;;5.50;75.20;;;;;;5091876;28;20126;-59
2021/01/16 00:53:03;;;;;;;5.93;2.70;;;5.50;75.50;;;;;;5094058;28;20161;-59
2021/01/16 00:55:35;;;;;;;4.05;2.92;;;5.50;75.60;;;;;;5092123;28;20035;-59
2021/01/16 00:58:13;;;;;;;5.22;3.05;;;5.40;75.80;;;;;;5091774;28;20023;-59
2021/01/16 01:00:45;;;;;;;4.35;3.17;;;5.40;75.90;;;;;;5092498;28;20476;-59
2021/01/16 01:03:19;;;;;;;8.10;3.63;;;5.40;76.10;;;;;;5092776;28;20035;-59
2021/01/16 01:05:45;;;;;;;4.72;2.42;;;5.30;76.20;;;;;;5093948;28;20032;-59
2021/01/16 01:08:11;;;;;;;10.52;4.15;;;5.30;76.20;;;;;;5093916;28;20031;-59
2021/01/16 01:10:43;;;;;;;8.32;4.85;;;5.20;76.40;;;;;;5092785;28;20391;-59
2021/01/16 01:13:10;;;;;;;3.13;2.45;;;5.20;76.50;;;;;;5093705;28;20031;-59
2021/01/16 01:15:39;;;;;;;6.55;2.88;;;5.20;76.60;;;;;;5093374;28;20077;-59
2021/01/16 01:18:05;;;;;;;5.10;2.97;;;5.20;76.70;;;;;;5093075;28;20020;-59
2021/01/16 01:20:31;;;;;;;4.95;3.53;;;5.20;76.90;;;;;;5093441;28;20103;-59
2021/01/16 01:22:57;;;;;;;8.63;3.17;;;5.20;77.00;;;;;;5093630;28;20570;-59
2021/01/16 01:25:24;;;;;;;11.20;4.47;;;5.10;77.00;;;;;;5094039;28;20048;-59
2021/01/16 01:27:52;;;;;;;6.95;4.00;;;5.10;77.10;;;;;;5106017;28;20086;-59
2021/01/16 01:30:19;;;;;;;8.80;5.07;;;5.10;77.20;;;;;;5093189;28;20384;-59
2021/01/16 01:32:45;;;;;;;6.07;3.40;;;5.10;77.90;;;;;;5092799;28;20375;-59
2021/01/16 01:35:12;;;;;;;3.67;2.03;;;5.10;77.30;;;;;;5093244;28;20463;-59
2021/01/16 01:37:46;;;;;;;9.20;3.47;;;5.10;77.30;;;;;;5092948;28;20040;-59
2021/01/16 01:40:13;;;;;;;2.78;0.80;;;5.10;77.40;;;;;;5092528;28;20060;-59
2021/01/16 01:42:40;;;;;;;5.63;4.53;;;5.10;77.30;;;;;;5092854;28;20032;-59
2021/01/16 01:45:09;;;;;;;9.55;4.68;;;5.00;77.40;;;;;;5092497;28;20081;-59
2021/01/16 01:47:39;;;;;;;6.90;4.07;;;5.10;77.50;;;;;;5093116;28;20027;-59
2021/01/16 01:50:07;;;;;;;1.65;1.42;;;5.10;77.50;;;;;;5093137;28;20043;-59
2021/01/16 01:52:34;;;;;;;9.05;4.45;;;5.00;77.50;;;;;;5092210;28;20051;-59
2021/01/16 01:55:01;;;;;;;11.15;4.05;;;5.00;77.60;;;;;;5092996;28;20035;-59
2021/01/16 01:57:28;;;;;;;9.82;5.00;;;5.00;77.50;;;;;;5093107;28;20032;-59
2021/01/16 01:59:55;;;;;;;4.47;2.58;;;5.00;77.50;;;;;;5092253;28;20395;-59
2021/01/16 02:02:23;;;;;;;9.10;4.53;;;5.00;77.60;;;;;;5092659;28;20028;-59
2021/01/16 02:04:51;;;;;;;14.20;6.53;;;5.00;77.80;;;;;;5091425;28;20131;-59
2021/01/16 02:07:24;;;;;;;5.28;3.00;;;4.90;77.80;;;;;;5091210;28;20020;-59
2021/01/16 02:09:51;;;;;;;10.05;5.03;;;4.90;77.80;;;;;;5092686;28;20388;-59
2021/01/16 02:12:17;;;;;;;2.85;1.90;;;5.00;77.90;;;;;;5092571;28;20467;-59
2021/01/16 02:14:50;;;;;;;4.05;2.50;;;5.00;77.90;;;;;;5092054;28;20025;-59
2021/01/16 02:17:20;;;;;;;4.18;2.78;;;5.00;77.80;;;;;;5092772;28;20456;-59
2021/01/16 02:20:08;;;;;;;11.18;5.47;;;5.00;77.90;;;;;;5092724;28;20597;-59
2021/01/16 02:22:53;;;;;;;18.23;6.53;;;5.00;77.90;;;;;;5092910;28;20039;-59
2021/01/16 02:25:45;;;;;;;5.20;3.17;;;5.00;77.80;;;;;;5092655;28;20035;-60
2021/01/16 02:28:24;;;;;;;7.32;4.05;;;5.00;77.80;;;;;;5091335;28;20115;-59
2021/01/16 02:30:51;;;;;;;8.95;4.57;;;5.10;77.90;;;;;;5092594;28;20443;-59
2021/01/16 02:33:20;;;;;;;6.78;2.80;;;5.10;77.80;;;;;;5092661;28;20544;-59
2021/01/16 02:36:11;;;;;;;12.88;5.57;;;5.10;77.80;;;;;;5091866;28;20070;-59
2021/01/16 02:38:46;;;;;;;6.53;4.03;;;5.10;77.80;;;;;;5092298;28;20112;-59
2021/01/16 02:41:23;;;;;;;6.30;3.60;;;5.10;77.80;;;;;;5092359;28;20536;-59
2021/01/16 02:44:01;;;;;;;13.48;6.72;;;5.10;77.90;;;;;;5092592;28;20032;-59
2021/01/16 02:46:38;;;;;;;16.90;7.78;;;5.10;77.70;;;;;;5092651;28;20036;-59
2021/01/16 02:49:06;;;;;;;18.65;8.55;;;5.20;77.40;;;;;;5091570;28;20032;-59
2021/01/16 02:51:54;;;;;;;19.80;7.70;;;5.20;76.90;;;;;;5092384;28;20036;-59
2021/01/16 02:54:21;;;;;;;17.08;7.32;;;5.30;76.70;;;;;;5092343;28;20035;-59
2021/01/16 02:56:47;;;;;;;14.23;7.25;;;5.30;76.50;;;;;;5091751;28;20053;-59
2021/01/16 02:59:13;;;;;;;14.18;7.05;;;5.40;76.30;;;;;;5092261;28;20039;-59
2021/01/16 03:01:40;;;;;;;14.63;7.07;;;5.50;76.20;;;;;;5092117;28;20028;-59
2021/01/16 03:04:05;;;;;;;15.02;7.38;;;5.50;76.10;;;;;;5091638;28;20526;-59
2021/01/16 03:06:33;;;;;;;12.32;6.35;;;5.50;76.00;;;;;;5092254;28;20020;-59
2021/01/16 03:09:03;;;;;;;15.48;6.43;;;5.50;76.00;;;;;;5092294;28;20028;-59
2021/01/16 03:11:30;;;;;;;11.88;5.60;;;5.50;76.00;;;;;;5091694;28;20036;-59
2021/01/16 03:14:01;;;;;;;16.38;7.13;;;5.50;76.00;;;;;;5092008;28;20024;-59
2021/01/16 03:16:28;;;;;;;13.00;6.47;;;5.50;76.10;;;;;;5091454;28;20395;-59
2021/01/16 03:18:56;;;;;;;14.75;6.25;;;5.50;76.10;;;;;;5095332;28;20020;-59
2021/01/16 03:21:22;;;;;;;16.73;6.90;;;5.40;76.10;;;;;;5095742;28;20039;-59
2021/01/16 03:23:48;;;;;;;12.57;6.38;;;5.40;76.90;;;;;;5094877;28;20093;-59
2021/01/16 03:26:14;;;;;;;16.23;6.38;;;5.40;76.30;;;;;;5095842;28;20475;-59
2021/01/16 03:28:40;;;;;;;13.40;6.07;;;5.40;76.40;;;;;;5095428;28;20031;-60
2021/01/16 03:31:05;;;;;;;11.43;5.15;;;5.40;76.40;;;;;;5094833;28;20036;-60
2021/01/16 03:33:31;;;;;;;12.65;6.03;;;5.40;76.50;;;;;;5100642;28;20494;-60
2021/01/16 03:35:56;;;;;;;11.98;4.60;;;5.40;76.50;;;;;;5096765;28;20024;-60
2021/01/16 03:38:22;;;;;;;11.05;5.00;;;5.40;76.60;;;;;;5102602;28;20052;-60
2021/01/16 03:40:48;;;;;;;11.35;5.65;;;5.40;76.70;;;;;;5115888;28;20463;-60
2021/01/16 03:43:14;;;;;;;15.98;6.28;;;5.30;76.70;;;;;;5102739;28;20032;-60
2021/01/16 03:45:40;;;;;;;9.45;5.07;;;5.40;76.80;;;;;;5094434;28;20028;-60
2021/01/16 03:48:06;;;;;;;10.63;4.80;;;5.30;76.80;;;;;;5095202;28;20055;-60
2021/01/16 03:50:32;;;;;;;14.05;5.13;;;5.40;77.00;;;;;;5095052;28;20048;-60
2021/01/16 03:52:58;;;;;;;1.83;1.73;;;5.30;77.00;;;;;;5094655;28;20535;-60
2021/01/16 03:55:24;;;;;;;12.40;5.07;;;5.20;77.00;;;;;;5094984;28;20035;-60
2021/01/16 03:57:49;;;;;;;11.45;5.50;;;5.20;77.10;;;;;;5095094;28;20395;-60
2021/01/16 04:00:15;;;;;;;3.80;2.60;;;5.20;77.20;;;;;;5094256;28;20036;-60
2021/01/16 04:02:41;;;;;;;5.32;3.33;;;5.20;77.30;;;;;;5107868;28;20016;-59
2021/01/16 04:05:07;;;;;;;7.55;3.78;;;5.20;77.40;;;;;;5114067;28;20096;-60
2021/01/16 04:07:33;;;;;;;10.93;4.57;;;5.10;77.40;;;;;;5110957;28;20378;-61
2021/01/16 04:10:00;;;;;;;6.53;3.25;;;5.10;77.50;;;;;;5114210;28;20032;-60
2021/01/16 04:12:28;;;;;;;5.88;3.58;;;5.10;77.70;;;;;;5111982;28;20024;-60
2021/01/16 04:14:54;;;;;;;12.82;4.53;;;5.10;77.70;;;;;;5111020;28;20386;-60
2021/01/16 04:17:19;;;;;;;13.57;6.03;;;5.10;77.70;;;;;;5113350;28;20029;-60
2021/01/16 04:19:45;;;;;;;8.48;2.92;;;5.10;77.80;;;;;;5108407;28;20020;-61
2021/01/16 04:22:11;;;;;;;10.13;4.03;;;5.10;77.80;;;;;;5106489;28;20428;-61
2021/01/16 04:24:36;;;;;;;14.35;7.32;;;5.10;77.90;;;;;;5105800;28;20055;-61
2021/01/16 04:27:02;;;;;;;3.67;1.65;;;5.10;77.90;;;;;;5103331;28;20028;-60
2021/01/16 04:29:28;;;;;;;11.82;5.78;;;5.10;78.00;;;;;;5106385;28;20160;-60
2021/01/16 04:31:53;;;;;;;18.15;6.15;;;5.10;77.90;;;;;;5108551;28;20023;-60
2021/01/16 04:34:19;;;;;;;9.20;4.60;;;5.10;78.00;;;;;;5107536;28;20077;-61
2021/01/16 04:36:44;;;;;;;9.50;5.10;;;5.10;78.00;;;;;;5103380;28;20070;-61
2021/01/16 04:39:10;;;;;;;14.98;8.15;;;5.10;78.00;;;;;;5112428;28;20050;-60
2021/01/16 04:41:37;;;;;;;14.27;6.53;;;5.10;77.90;;;;;;5104357;28;20052;-61
2021/01/16 04:44:03;;;;;;;16.92;7.50;;;5.20;78.00;;;;;;5094244;28;20027;-60
2021/01/16 04:46:29;;;;;;;16.95;7.40;;;5.20;78.50;;;;;;5094340;28;20165;-60
2021/01/16 04:49:01;;;;;;;15.90;8.40;;;5.20;77.70;;;;;;5093350;28;20443;-61
2021/01/16 04:51:32;;;;;;;16.58;7.32;;;5.30;77.40;;;;;;5096397;28;20028;-60
2021/01/16 04:53:59;;;;;;;13.88;6.70;;;5.30;77.20;;;;;;5110445;28;20019;-60
2021/01/16 04:56:28;;;;;;;15.68;7.57;;;5.30;77.10;;;;;;5112322;28;20110;-60
2021/01/16 04:58:54;;;;;;;17.08;6.93;;;5.30;77.00;;;;;;5111130;28;20352;-60
2021/01/16 05:01:20;;;;;;;17.80;7.05;;;5.40;76.90;;;;;;5113241;28;20047;-60
2021/01/16 05:03:50;;;;;;;16.75;8.38;;;5.40;76.90;;;;;;5110594;28;20522;-61
2021/01/16 05:06:18;;;;;;;16.15;7.78;;;5.40;76.80;;;;;;5108552;28;20043;-60
2021/01/16 05:08:45;;;;;;;15.60;7.85;;;5.50;76.70;;;;;;5107495;28;20032;-60
2021/01/16 05:11:22;;;;;;;15.98;7.93;;;5.50;76.50;;;;;;5103420;28;20031;-61
2021/01/16 05:14:10;;;;;;;16.02;8.27;;;5.50;76.30;;;;;;5108051;28;20023;-60
2021/01/16 05:16:57;;;;;;;17.77;8.13;;;5.50;76.00;;;;;;5105852;28;20028;-60
2021/01/16 05:19:31;;;;;;;15.95;7.68;;;5.60;75.90;;;;;;5103567;28;20040;-60
2021/01/16 05:21:58;;;;;;;19.60;7.93;;;5.60;75.70;;;;;;5105447;28;20391;-60
2021/01/16 05:24:24;;;;;;;16.80;7.80;;;5.60;75.60;;;;;;5103624;28;20028;-61
2021/01/16 05:27:08;;;;;;;22.10;9.07;;;5.70;75.60;;;;;;5106724;28;20026;-60
2021/01/16 05:29:35;;;;;;;19.52;8.52;;;5.60;75.50;;;;;;5103488;28;20491;-60
2021/01/16 05:32:04;;;;;;;21.23;10.07;;;5.60;75.50;;;;;;5106914;28;20030;-60
2021/01/16 05:34:31;;;;;;;25.63;10.05;;;5.70;75.60;;;;;;5107881;28;20379;-60
2021/01/16 05:36:58;;;;;;;23.58;10.57;;;5.70;75.50;;;;;;5107950;28;20489;-60
2021/01/16 05:39:27;;;;;;;22.85;11.13;;;5.70;75.40;;;;;;5111185;28;20040;-60
2021/01/16 05:41:59;;;;;;;21.92;10.02;;;5.70;75.30;;;;;;5101747;28;20108;-61
2021/01/16 05:44:26;;;;;;;19.63;10.20;;;5.70;75.10;;;;;;5092361;28;20027;-60
2021/01/16 05:46:52;;;;;;;22.38;10.88;;;5.70;74.90;;;;;;5093436;28;22339;-60
2021/01/16 05:49:21;;;;;;;24.90;12.10;;;5.80;74.70;;;;;;5093257;28;20460;-60
2021/01/16 05:51:47;;;;;;;23.80;12.27;;;5.80;74.50;;;;;;5092175;28;20035;-60
2021/01/16 05:54:14;;;;;;;24.17;11.38;;;5.80;74.20;;;;;;5093104;28;20032;-60
2021/01/16 05:56:41;;;;;;;24.20;10.70;;;5.80;74.10;;;;;;5092910;28;20047;-60
2021/01/16 05:59:16;;;;;;;23.25;11.35;;;5.90;74.10;;;;;;5092045;28;20086;-60
2021/01/16 06:01:47;;;;;;;21.90;11.00;;;5.90;74.00;;;;;;5093132;28;20081;-60
2021/01/16 06:04:18;;;;;;;24.50;10.98;;;5.90;73.80;;;;;;5092893;28;20034;-60
2021/01/16 06:06:43;;;;;;;24.23;10.43;;;5.90;73.50;;;;;;5092134;28;20028;-61
2021/01/16 06:09:18;;;;;;;20.55;9.10;;;5.90;73.50;;;;;;5092647;28;20043;-60
2021/01/16 06:11:51;;;;;;;23.40;9.70;;;5.90;73.40;;;;;;5093013;28;20100;-60
2021/01/16 06:14:18;;;;;;;19.40;8.73;;;5.90;73.30;;;;;;5091866;28;20029;-61
2021/01/16 06:16:53;;;;;;;20.95;8.95;;;5.90;73.40;;;;;;5092722;28;20601;-60
2021/01/16 06:19:26;;;;;;;12.43;7.35;;;5.90;73.30;;;;;;5091938;28;20058;-60
2021/01/16 06:21:53;;;;;;;13.15;6.30;;;5.90;73.30;;;;;;5092729;28;20031;-61
2021/01/16 06:24:21;;;;;;;15.52;7.18;;;5.90;73.30;;;;;;5092635;28;20058;-60
2021/01/16 06:26:58;;;;;;;14.18;7.45;;;5.90;73.40;;;;;;5092134;28;20024;-60
2021/01/16 06:29:28;;;;;;;14.45;7.13;;;5.80;73.30;;;;;;5092363;28;20468;-60
2021/01/16 06:32:08;;;;;;;13.15;7.13;;;5.80;73.30;;;;;;5092568;28;20074;-61
2021/01/16 06:34:39;;;;;;;14.15;6.70;;;5.80;73.30;;;;;;5091581;28;20043;-60
2021/01/16 06:37:10;;;;;;;15.25;7.65;;;5.80;73.30;;;;;;5092779;28;20407;-60
2021/01/16 06:39:43;;;;;;;20.25;9.02;;;5.90;73.30;;;;;;5092223;28;20047;-61
2021/01/16 06:42:30;;;;;;;21.55;7.78;;;5.80;73.20;;;;;;5092145;28;20470;-60
2021/01/16 06:45:10;;;;;;;15.85;7.00;;;5.90;73.20;;;;;;5091785;28;20032;-60
2021/01/16 06:47:37;;;;;;;16.73;7.45;;;5.90;73.10;;;;;;5091988;28;20450;-60
2021/01/16 06:50:05;;;;;;;16.10;7.57;;;5.90;73.10;;;;;;5092165;28;20507;-60
2021/01/16 06:52:38;;;;;;;14.95;8.05;;;5.90;73.00;;;;;;5093531;28;20027;-60
2021/01/16 06:55:06;;;;;;;12.68;6.40;;;5.90;72.90;;;;;;5095446;28;20387;-61
2021/01/16 06:57:34;;;;;;;16.73;7.63;;;5.90;72.90;;;;;;5096494;28;20031;-60
2021/01/16 07:00:07;;;;;;;17.15;7.57;;;5.90;72.80;;;;;;5096465;28;20039;-61
2021/01/16 07:02:34;;;;;;;16.38;6.40;;;5.90;72.80;;;;;;5095271;28;20501;-61
2021/01/16 07:05:02;;;;;;;14.32;7.40;;;6.00;72.80;;;;;;5096252;28;20032;-60
2021/01/16 07:07:51;;;;;;;16.35;8.00;;;5.90;72.70;;;;;;5095909;28;20353;-60
2021/01/16 07:10:18;;;;;;;14.38;7.25;;;5.90;73.30;;;;;;5095474;28;20072;-60
2021/01/16 07:12:46;;;;;;;16.23;7.50;;;5.90;72.70;;;;;;5095918;28;20031;-61
2021/01/16 07:15:12;;;;;;;15.27;7.55;;;5.90;72.60;;;;;;5096080;28;20149;-60
2021/01/16 07:17:38;;;;;;;12.93;6.95;;;5.90;72.60;;;;;;5094958;28;20055;-61
2021/01/16 07:20:09;;;;;;;14.60;7.47;;;5.90;72.50;;;;;;5107011;28;20119;-60
2021/01/16 07:22:41;;;;;;;17.00;7.85;;;6.00;72.50;;;;;;5111591;28;20063;-60
2021/01/16 07:25:08;;;;;;;11.68;6.78;;;5.90;72.40;;;;;;5114197;28;20392;-61
2021/01/16 07:27:36;;;;;;;13.25;6.63;;;5.90;72.40;;;;;;5113603;28;20039;-61
2021/01/16 07:30:08;;;;;;;14.40;6.53;;;5.90;72.40;;;;;;5114283;28;20456;-60
2021/01/16 07:32:41;;;;;;;12.52;7.00;;;5.90;72.30;;;;;;5115047;28;20036;-60
2021/01/16 07:35:24;;;;;;;11.82;6.43;;;6.00;72.30;;;;;;5112822;28;20478;-60
2021/01/16 07:37:51;;;;;;;13.20;6.70;;;6.00;72.40;;;;;;5110114;28;20035;-61
2021/01/16 07:40:19;;;;;;;13.52;7.38;;;6.00;72.20;;;;;;5113999;28;20072;-61
2021/01/16 07:42:48;;;;;;;14.30;8.00;;;5.90;72.10;;;;;;5105203;27;20034;-61
2021/01/16 07:45:23;;;;;;;12.73;7.25;;;5.90;72.00;;;;;;5112468;28;20111;-61
2021/01/16 07:47:51;;;;;;;17.45;7.85;;;6.00;72.00;;;;;;5112854;28;20146;-61
2021/01/16 07:50:25;;;;;;;14.10;6.72;;;5.90;71.90;;;;;;5110066;28;20058;-61
2021/01/16 07:52:55;;;;;;;13.95;7.88;;;5.90;71.80;;;;;;5102307;28;20020;-61
2021/01/16 07:55:21;;;;;;;14.52;7.25;;;6.00;71.70;;;;;;5110363;28;20073;-61
2021/01/16 07:57:50;;;;;;;13.50;7.88;;;6.00;71.60;;;;;;5111863;28;20015;-61
2021/01/16 08:00:18;;;;;;;16.52;7.95;;;6.00;71.50;;;;;;5114083;28;20035;-61
2021/01/16 08:03:02;;;;;;;13.15;6.65;;;6.00;71.40;;;;;;5114666;28;20032;-61
2021/01/16 08:05:41;;;;;;;13.90;6.40;;;6.00;71.50;;;;;;5111319;28;20024;-61
2021/01/16 08:08:21;;;;;;;11.63;6.90;;;6.00;71.50;;;;;;5100681;28;20031;-61
2021/01/16 08:10:50;;;;;;;16.15;7.38;;;6.00;71.40;;;;;;5106675;28;20038;-61
2021/01/16 08:13:21;;;;;;;25.15;10.13;;;6.00;71.40;;;;;;5099541;28;20543;-62
2021/01/16 08:15:49;;;;;;;24.65;10.50;;;6.00;71.40;;;;;;5105240;28;20039;-61
2021/01/16 08:18:22;;;;;;;20.40;11.07;;;6.00;71.50;;;;;;5114154;28;20027;-61
2021/01/16 08:20:49;;;;;;;14.00;8.07;;;6.00;71.50;;;;;;5111269;28;20463;-61
2021/01/16 08:23:25;;;;;;;10.93;6.90;;;5.90;71.40;;;;;;5112011;28;20028;-61
2021/01/16 08:25:52;;;;;;;11.93;5.18;;;5.90;71.50;;;;;;5110356;28;20402;-62
2021/01/16 08:28:27;;;;;;;10.82;5.68;;;6.00;71.50;;;;;;5106186;28;20028;-61
2021/01/16 08:30:53;;;;;;;13.55;6.20;;;6.00;71.60;;;;;;5110783;28;20060;-61
2021/01/16 08:33:36;;;;;;;12.00;6.22;;;6.00;71.60;;;;;;5111866;28;20079;-61
2021/01/16 08:36:33;;;;;;;11.82;6.28;;;5.90;71.60;;;;;;5112538;28;20110;-62
2021/01/16 08:39:26;;;;;;;12.10;6.18;;;5.90;71.60;;;;;;5092347;28;20056;-60
2021/01/16 08:42:03;;;;;;;9.43;4.90;;;5.90;71.60;;;;;;5111033;28;20450;-61
2021/01/16 08:44:49;;;;;;;9.20;4.57;;;5.90;71.70;;;;;;5112776;28;20039;-60
2021/01/16 08:47:16;;;;;;;8.02;4.25;;;5.90;72.50;;;;;;5108679;28;20031;-61
2021/01/16 08:49:42;;;;;;;10.57;5.72;;;5.90;72.10;;;;;;5110843;28;20039;-61
2021/01/16 08:52:08;;;;;;;9.50;3.53;;;5.90;72.30;;;;;;5111993;28;20368;-60
2021/01/16 08:54:34;;;;;;;10.23;5.03;;;5.80;72.40;;;;;;5112021;28;20028;-61
2021/01/16 08:56:59;;;;;;;11.40;5.45;;;5.90;72.50;;;;;;5112095;28;20132;-60
2021/01/16 08:59:33;;;;;;;12.50;6.00;;;5.80;72.40;;;;;;5111362;28;20051;-60
2021/01/16 09:02:11;;;;;;;3.42;1.80;;;5.80;72.30;;;;;;5113073;28;20119;-61
2021/01/16 09:04:41;;;;;;;11.38;4.63;;;5.80;73.50;;;;;;5110927;28;20027;-61
2021/01/16 09:07:17;;;;;;;8.05;4.10;;;5.80;73.20;;;;;;5113576;28;20387;-59
2021/01/16 09:09:54;;;;;;;7.82;3.95;;;5.80;73.50;;;;;;5108787;28;20100;-59
2021/01/16 09:12:30;;;;;;;6.20;3.45;;;5.70;73.50;;;;;;5111419;27;20033;-59
2021/01/16 09:15:18;;;;;;;9.75;5.20;;;5.70;73.60;;;;;;5107464;28;20027;-60
2021/01/16 09:18:02;;;;;;;9.13;4.10;;;5.70;73.50;;;;;;5112285;28;20043;-60
2021/01/16 09:20:32;;;;;;;5.00;2.80;;;5.70;73.70;;;;;;5111853;28;20102;-60
2021/01/16 09:23:18;;;;;;;8.20;3.92;;;5.70;74.00;;;;;;5110009;28;20076;-60
2021/01/16 09:25:44;;;;;;;11.25;4.95;;;5.60;74.20;;;;;;5105294;28;20042;-60
2021/01/16 09:28:09;;;;;;;12.18;6.07;;;5.70;74.20;;;;;;5098258;28;20504;-60
2021/01/16 09:30:35;;;;;;;10.27;4.90;;;5.70;74.20;;;;;;5096017;27;20040;-60
2021/01/16 09:33:23;;;;;;;9.30;4.60;;;5.70;74.10;;;;;;5096472;28;20043;-59
2021/01/16 09:35:50;;;;;;;10.30;5.70;;;5.70;74.20;;;;;;5096551;28;20182;-60
2021/01/16 09:38:16;;;;;;;11.38;5.40;;;5.70;74.00;;;;;;5096783;28;20039;-60
2021/01/16 09:40:42;;;;;;;9.95;5.32;;;5.80;73.80;;;;;;5097360;28;20032;-60
2021/01/16 09:43:22;;;;;;;16.80;6.95;;;5.80;73.70;;;;;;5093186;28;20052;-60
2021/01/16 09:45:57;;;;;;;11.18;6.18;;;5.90;73.80;;;;;;5093081;28;20479;-60
2021/01/16 09:48:32;;;;;;;14.43;6.95;;;5.90;74.00;;;;;;5092961;28;20089;-60
2021/01/16 09:50:59;;;;;;;13.93;6.50;;;5.90;74.10;;;;;;5092515;28;20454;-61
2021/01/16 09:53:29;;;;;;;12.38;6.38;;;5.90;74.10;;;;;;5092944;28;20034;-60
2021/01/16 09:55:55;;;;;;;7.75;4.38;;;5.80;74.00;;;;;;5092869;28;20471;-60
2021/01/16 09:58:31;;;;;;;13.13;6.97;;;5.90;74.10;;;;;;5092304;28;20036;-60
2021/01/16 10:01:19;;;;;;;12.30;7.03;;;5.90;74.00;;;;;;5092890;28;20116;-60
2021/01/16 10:03:46;;;;;;;14.02;6.60;;;5.90;74.00;;;;;;5094562;28;20078;-60
2021/01/16 10:06:17;;;;;;;8.77;4.50;;;5.90;73.90;;;;;;5109547;28;20027;-60
2021/01/16 10:08:43;;;;;;;15.38;8.18;;;6.00;74.10;;;;;;5110117;28;20055;-59
2021/01/16 10:11:10;;;;;;;14.05;6.65;;;6.00;74.00;;;;;;5093153;28;20036;-60
2021/01/16 10:13:37;;;;;;;7.07;3.97;;;6.00;74.10;;;;;;5092653;28;20035;-69
2021/01/16 10:16:07;;;;;;;8.90;4.68;;;6.00;74.10;;;;;;5095676;28;20036;-65
2021/01/16 10:18:34;;;;;;;12.55;5.40;;;6.00;74.20;;;;;;5106000;28;20493;-66
2021/01/16 10:21:01;;;;;;;14.02;6.75;;;6.00;74.20;;;;;;5109486;28;20473;-81
2021/01/16 10:23:32;;;;;;;14.48;7.57;;;6.00;74.40;;;;;;5110066;28;20044;-62
2021/01/16 10:26:06;;;;;;;12.30;6.22;;;6.00;74.40;;;;;;5107923;28;20028;-61
2021/01/16 10:28:35;;;;;;;6.43;3.83;;;5.90;74.60;;;;;;5113726;28;20032;-60
2021/01/16 10:31:10;;;;;;;12.65;6.82;;;5.90;74.70;;;;;;5115144;27;20513;-60
2021/01/16 10:33:41;;;;;;;10.05;4.88;;;5.90;74.80;;;;;;5113884;28;20027;-59
2021/01/16 10:36:15;;;;;;;14.25;5.78;;;6.00;74.90;;;;;;5115320;28;20075;-61
2021/01/16 10:38:48;;;;;;;9.23;4.47;;;6.00;75.10;;;;;;5115099;28;20120;-67
2021/01/16 10:41:33;;;;;;;13.27;6.50;;;5.90;75.30;;;;;;5111122;28;20032;-61
2021/01/16 10:44:04;;;;;;;14.90;6.22;;;5.90;75.40;;;;;;5112003;28;20032;-61
2021/01/16 10:46:46;;;;;;;7.78;3.30;;;5.90;75.50;;;;;;5105571;28;20067;-61
2021/01/16 10:49:16;;;;;;;11.98;5.25;;;5.80;75.70;;;;;;5099678;28;20032;-60
2021/01/16 10:52:04;;;;;;;18.98;4.50;;;5.80;75.80;;;;;;5113651;28;20055;-61
2021/01/16 10:54:30;;;;;;;11.93;5.43;;;5.80;76.00;;;;;;5098849;28;20044;-61
2021/01/16 10:57:04;;;;;;;16.45;7.47;;;5.80;76.10;;;;;;5102235;28;20031;-61
2021/01/16 10:59:31;;;;;;;13.73;6.20;;;5.80;76.20;;;;;;5099549;28;20054;-60
2021/01/16 11:01:58;;;;;;;15.35;7.53;;;5.80;76.30;;;;;;5101532;28;20027;-60
2021/01/16 11:04:31;;;;;;;6.25;3.90;;;5.80;76.30;;;;;;5101228;28;20168;-60
2021/01/16 11:06:59;;;;;;;7.97;4.53;;;5.80;77.10;;;;;;5103262;28;20036;-65
2021/01/16 11:09:33;;;;;;;8.57;5.10;;;5.80;76.50;;;;;;5097120;28;20502;-61
2021/01/16 11:12:00;;;;;;;8.80;4.35;;;5.80;76.50;;;;;;5111783;28;20089;-61
2021/01/16 11:14:32;;;;;;;14.93;8.25;;;5.80;76.60;;;;;;5110837;28;20024;-61
2021/01/16 11:16:58;;;;;;;14.02;6.15;;;5.80;76.60;;;;;;5112318;28;20051;-61
2021/01/16 11:19:31;;;;;;;11.30;4.85;;;5.80;76.60;;;;;;5112969;28;20047;-64
2021/01/16 11:22:04;;;;;;;19.95;7.97;;;5.80;76.80;;;;;;5113112;28;20115;-61
2021/01/16 11:24:49;;;;;;;13.05;5.95;;;5.80;76.70;;;;;;5114186;28;20036;-61
2021/01/16 11:27:17;;;;;;;15.75;7.88;;;5.80;76.80;;;;;;5113419;28;20155;-61
2021/01/16 11:29:44;;;;;;;18.50;9.30;;;5.80;76.80;;;;;;5112539;28;20040;-61
2021/01/16 11:32:21;;;;;;;12.45;5.80;;;5.90;76.90;;;;;;5110906;28;20023;-62
2021/01/16 11:35:07;;;;;;;16.20;7.97;;;5.80;76.90;;;;;;5110526;28;20492;-61
2021/01/16 11:37:51;;;;;;;14.27;6.63;;;5.80;76.90;;;;;;5109898;28;20118;-62
2021/01/16 11:40:21;;;;;;;3.25;2.10;;;5.90;77.10;;;;;;5094813;28;20381;-62
2021/01/16 11:42:52;;;;;;;15.32;8.50;;;5.80;77.20;;;;;;5093945;28;20089;-61
2021/01/16 11:45:18;;;;;;;20.48;8.98;;;5.80;77.20;;;;;;5094124;28;20497;-61
2021/01/16 11:47:57;;;;;;;18.55;8.43;;;5.80;77.20;;;;;;5102028;28;20043;-61
2021/01/16 11:50:28;;;;;;;16.42;8.25;;;5.80;77.20;;;;;;5102421;28;20036;-61
2021/01/16 11:52:54;;;;;;;8.57;3.83;;;5.80;77.10;;;;;;5097251;28;20383;-62
2021/01/16 11:55:20;;;;;;;18.60;8.65;;;5.90;77.30;;;;;;5101921;28;20028;-62
2021/01/16 11:57:47;;;;;;;19.95;8.60;;;5.80;77.30;;;;;;5103414;28;20077;-62
2021/01/16 12:00:17;;;;;;;15.32;7.38;;;5.80;77.20;;;;;;5112049;28;20026;-61
2021/01/16 12:02:48;;;;;;;5.15;2.97;;;5.80;77.20;;;;;;5102610;28;20128;-61
2021/01/16 12:05:15;;;;;;;13.80;6.90;;;5.90;77.30;;;;;;5106515;28;20035;-61
2021/01/16 12:08:12;;;;;;;12.95;6.68;;;5.90;77.20;;;;;;5102486;28;20420;-61
2021/01/16 12:10:39;;;;;;;12.90;6.47;;;5.90;77.20;;;;;;5092794;28;20057;-61
2021/01/16 12:13:10;;;;;;;15.57;7.65;;;5.90;77.00;;;;;;5104240;28;20031;-61
2021/01/16 12:15:35;;;;;;;5.13;2.83;;;5.90;76.90;;;;;;5106793;28;20032;-61
2021/01/16 12:18:03;;;;;;;5.97;3.45;;;5.90;77.00;;;;;;5102915;28;20416;-61
2021/01/16 12:20:28;;;;;;;13.63;6.95;;;5.90;77.10;;;;;;5105096;28;20027;-61
2021/01/16 12:23:00;;;;;;;11.90;6.65;;;6.00;77.10;;;;;;5112008;28;20042;-61
2021/01/16 12:25:34;;;;;;;13.77;6.80;;;5.90;77.10;;;;;;5112475;28;20143;-62
2021/01/16 12:28:11;;;;;;;14.35;6.85;;;6.00;77.20;;;;;;5110403;28;20115;-61
2021/01/16 12:30:39;;;;;;;17.20;7.60;;;6.00;77.10;;;;;;5101895;28;20044;-61
2021/01/16 12:33:05;;;;;;;13.20;7.53;;;6.00;77.00;;;;;;5103663;28;20051;-61
2021/01/16 12:35:31;;;;;;;5.93;3.13;;;6.00;76.90;;;;;;5095990;28;20035;-62
2021/01/16 12:37:57;;;;;;;8.30;4.82;;;6.10;77.00;;;;;;5085601;28;555030;-61
2021/01/16 12:40:25;;;;;;;12.77;6.57;;;6.00;76.90;;;;;;5102255;28;20036;-61
2021/01/16 12:42:51;;;;;;;11.00;6.13;;;6.00;76.90;;;;;;5092663;28;20060;-62
2021/01/16 12:45:19;;;;;;;16.20;7.80;;;6.00;77.00;;;;;;5093096;28;20387;-61
2021/01/16 12:47:48;;;;;;;9.45;4.30;;;6.00;77.00;;;;;;5108112;28;20023;-61
2021/01/16 12:50:14;;;;;;;7.35;4.65;;;6.00;77.10;;;;;;5109006;28;20437;-61
2021/01/16 12:52:45;;;;;;;4.78;2.85;;;6.00;77.30;;;;;;5108292;28;20024;-61
2021/01/16 12:55:16;;;;;;;14.50;7.18;;;6.00;77.40;;;;;;5106163;27;20491;-62
2021/01/16 12:57:44;;;;;;;10.15;4.85;;;6.00;77.40;;;;;;5109972;28;20039;-61
2021/01/16 13:00:12;;;;;;;5.65;3.60;;;5.90;77.40;;;;;;5111575;28;20130;-61
2021/01/16 13:02:39;;;;;;;6.53;4.15;;;5.90;77.50;;;;;;5110261;28;20039;-61
2021/01/16 13:05:11;;;;;;;6.40;3.60;;;6.00;77.70;;;;;;5110076;28;20032;-61
2021/01/16 13:07:38;;;;;;;3.47;2.35;;;6.00;77.70;;;;;;5107178;28;20034;-61